Moccasin, Arizona
Current Conditions -  °F | °C
As of 3:55 PM on Thursday 27 Nov 2014 (Local Time) from KAZC Reporting Station
Clear Clear  
Wind Chill: 62°   Ceiling: Unl
Heat Index: 62°   Visibility: 10mi
Dew Point: 19°   Wind: 3mph
Humidity: 19%   Direction: 130°SE
Pressure: 30.3"   Gusts: NA
Location:  36.9484°N, 112.529°W
Report Text: KAZC 272255Z AUTO 13003KT 10SM CLR 17/M07 A3030 RMK AO2 T01681070
Loading
Personal Weather Stations






























Interactive Weather Map New forecast layout! Learn more

10-Day Weather Forecast

Advertisements
Track Severe Weather on mobile